YVT weather

Buffalo Narrows Airport
Buffalo Narrows, Saskatchewan, Canada

Public forecast

Using degrees Celsius for public forecast. Weather courtesy of forecast.io.

Current aviation weather report (METAR) for Buffalo Narrows Airport

Retrieved 2019/10/16 18:00 UTC (59 minutes ago):

CYVT 161800Z AUTO 18008KT 9SM OVC006 02/01 A2974 RMK SLP093

Aviation forecast (TAF) for Buffalo Narrows Airport

Retrieved 2019/10/16 19:00 UTC (0 seconds ago):

TAF CYVT 161842Z 1619/1704 17012G22KT P6SM SCT006 OVC015 TEMPO 1619/1622 6SM -RA BR OVC006 FM162200 17012KT P6SM SCT020 TEMPO 1622/1623 BKN020 RMK FCST BASED ON AUTO OBS NXT FCST BY 170100Z